Time;durP1;ratioP1;P1;durP2;ratioP2;P2;SDS_P1;SDS_P2;PMS_P1;PMS_P2;Temp;Humidity;BMP_temperature;BMP_pressure;BME280_temperature;BME280_humidity;BME280_pressure;Samples;Min_cycle;Max_cycle;Signal;HPM_P1;HPM_P2
2023/09/09 00:00:52;;;;;;;7.00;3.97;;;;;;;18.97;58.53;95376.94;4927738;29;20083;-86
2023/09/09 00:03:21;;;;;;;6.38;3.92;;;;;;;19.03;58.33;95382.63;4943005;28;20130;-87
2023/09/09 00:05:47;;;;;;;7.85;3.83;;;;;;;19.07;58.53;95391.56;4927775;29;20069;-86
2023/09/09 00:08:12;;;;;;;6.97;4.20;;;;;;;19.04;58.35;95381.38;4928098;29;20475;-86
2023/09/09 00:10:38;;;;;;;5.95;4.20;;;;;;;19.06;58.73;95387.22;4944064;29;20027;-85
2023/09/09 00:13:05;;;;;;;7.28;4.25;;;;;;;18.96;58.61;95383.00;4911866;29;20114;-86
2023/09/09 00:15:32;;;;;;;5.05;4.10;;;;;;;18.92;59.00;95376.84;4912846;29;20043;-85
2023/09/09 00:17:59;;;;;;;6.15;3.90;;;;;;;18.90;59.33;95387.72;4911680;29;20126;-86
2023/09/09 00:20:35;;;;;;;5.65;4.63;;;;;;;18.88;59.50;95381.88;4928350;29;20039;-86
2023/09/09 00:23:08;;;;;;;5.93;4.28;;;;;;;18.87;59.44;95383.09;4927574;29;20027;-86
2023/09/09 00:25:43;;;;;;;6.23;4.67;;;;;;;18.83;59.89;95375.72;4927971;29;20032;-86
2023/09/09 00:28:10;;;;;;;6.28;3.83;;;;;;;18.69;59.74;95356.22;4927909;29;20466;-86
2023/09/09 00:30:36;;;;;;;6.35;4.38;;;;;;;18.86;59.75;95364.84;4927359;29;20031;-86
2023/09/09 00:33:02;;;;;;;6.30;4.68;;;;;;;18.91;59.69;95366.97;4928346;29;20032;-86
2023/09/09 00:35:29;;;;;;;7.15;4.63;;;;;;;18.80;59.91;95362.75;4925833;29;20056;-86
2023/09/09 00:37:55;;;;;;;9.68;4.70;;;;;;;18.79;60.14;95357.66;4930224;29;20062;-85
2023/09/09 00:40:20;;;;;;;7.00;4.35;;;;;;;18.69;60.30;95359.75;4943333;29;20472;-86
2023/09/09 00:42:45;;;;;;;5.55;4.25;;;;;;;18.73;60.34;95365.91;4944130;29;20031;-85
2023/09/09 00:45:11;;;;;;;6.47;4.50;;;;;;;18.76;60.41;95364.19;4927226;29;20028;-84
2023/09/09 00:47:38;;;;;;;5.53;4.47;;;;;;;18.76;60.31;95367.75;4910334;29;20090;-87
2023/09/09 00:50:05;;;;;;;8.77;4.78;;;;;;;18.69;60.80;95362.53;4928147;29;20027;-86
2023/09/09 00:52:31;;;;;;;5.72;4.57;;;;;;;18.73;60.84;95371.47;4926987;29;20083;-86
2023/09/09 00:54:57;;;;;;;5.88;4.30;;;;;;;18.68;60.96;95368.59;4928067;29;20044;-86
2023/09/09 00:57:22;;;;;;;5.63;4.20;;;;;;;18.67;61.03;95365.06;4927023;29;20123;-86
2023/09/09 00:59:48;;;;;;;6.38;4.60;;;;;;;18.68;61.27;95363.81;4927814;29;20028;-85
2023/09/09 01:02:13;;;;;;;6.55;4.75;;;;;;;18.52;61.76;95359.47;4942909;29;20392;-86
2023/09/09 01:04:39;;;;;;;6.03;4.88;;;;;;;18.46;61.97;95363.38;4895186;29;20019;-85
2023/09/09 01:07:05;;;;;;;6.25;4.65;;;;;;;18.30;62.53;95362.59;4911950;29;20072;-85
2023/09/09 01:09:31;;;;;;;6.95;4.90;;;;;;;18.22;62.93;95360.66;4910878;29;20455;-84
2023/09/09 01:11:58;;;;;;;6.57;4.72;;;;;;;18.13;63.50;95353.16;4928046;29;20043;-85
2023/09/09 01:14:23;;;;;;;8.52;4.78;;;;;;;18.10;63.57;95359.66;4895125;29;20032;-84
2023/09/09 01:16:51;;;;;;;6.35;4.75;;;;;;;18.09;63.47;95355.34;4914235;29;20031;-85
2023/09/09 01:19:18;;;;;;;6.50;4.30;;;;;;;18.06;63.62;95350.72;4899252;29;20039;-85
2023/09/09 01:21:45;;;;;;;6.13;4.57;;;;;;;18.03;63.77;95371.94;4931016;29;20024;-84
2023/09/09 01:24:15;;;;;;;6.93;4.43;;;;;;;18.02;63.94;95362.06;4930960;29;20023;-86
2023/09/09 01:26:44;;;;;;;6.38;4.95;;;;;;;17.99;64.05;95365.78;4930478;29;20098;-85
2023/09/09 01:29:09;;;;;;;5.55;3.92;;;;;;;17.90;63.84;95356.75;4915503;29;20028;-85
2023/09/09 01:31:35;;;;;;;5.57;4.43;;;;;;;17.96;64.05;95354.84;4929771;29;20038;-85
2023/09/09 01:34:00;;;;;;;5.68;4.22;;;;;;;18.02;63.79;95356.50;4947306;29;20487;-85
2023/09/09 01:36:26;;;;;;;7.47;4.43;;;;;;;18.04;63.53;95350.44;4898179;29;20051;-86
2023/09/09 01:38:51;;;;;;;8.00;4.32;;;;;;;18.05;63.33;95340.84;4914823;29;20024;-85
2023/09/09 01:41:16;;;;;;;6.63;4.10;;;;;;;18.15;63.16;95350.66;4914731;29;20522;-84
2023/09/09 01:43:42;;;;;;;6.32;3.88;;;;;;;18.16;63.00;95349.41;4946401;29;20024;-85
2023/09/09 01:46:07;;;;;;;6.93;3.80;;;;;;;18.15;63.20;95353.44;4947067;29;20047;-84
2023/09/09 01:48:33;;;;;;;7.75;4.05;;;;;;;18.13;63.10;95350.38;4929844;29;20465;-85
2023/09/09 01:50:58;;;;;;;6.05;3.97;;;;;;;18.15;63.03;95352.69;4930890;29;20501;-85
2023/09/09 01:53:23;;;;;;;7.97;4.00;;;;;;;18.17;63.10;95359.28;4945472;29;20564;-85
2023/09/09 01:55:49;;;;;;;10.43;4.90;;;;;;;18.17;62.83;95353.72;4931264;29;20027;-85
2023/09/09 01:58:15;;;;;;;7.90;3.90;;;;;;;18.19;62.91;95358.84;4914196;29;20043;-84
2023/09/09 02:00:41;;;;;;;6.00;3.88;;;;;;;18.18;62.67;95355.28;4914155;29;20023;-84
2023/09/09 02:03:07;;;;;;;4.75;3.85;;;;;;;18.18;62.67;95365.63;4930087;29;20031;-85
2023/09/09 02:05:33;;;;;;;9.48;4.10;;;;;;;18.19;62.51;95359.59;4945482;29;20115;-85
2023/09/09 02:07:58;;;;;;;7.13;4.07;;;;;;;18.16;62.55;95354.97;4930498;29;20070;-84
2023/09/09 02:10:23;;;;;;;5.30;3.90;;;;;;;18.16;62.70;95359.78;4945543;29;20448;-84
2023/09/09 02:12:49;;;;;;;6.13;3.95;;;;;;;18.10;62.72;95350.56;4946293;29;20038;-86
2023/09/09 02:15:14;;;;;;;7.03;4.35;;;;;;;18.14;62.54;95348.38;4897652;29;20023;-83
2023/09/09 02:17:40;;;;;;;5.75;4.40;;;;;;;18.09;62.56;95347.00;4929981;29;20028;-85
2023/09/09 02:20:08;;;;;;;7.65;4.50;;;;;;;18.15;62.68;95352.69;4898029;29;20027;-86
2023/09/09 02:22:33;;;;;;;7.55;4.50;;;;;;;18.03;62.55;95341.34;4897866;29;20410;-85
2023/09/09 02:24:59;;;;;;;7.93;4.70;;;;;;;18.07;62.83;95355.06;4914199;29;20031;-84
2023/09/09 02:27:24;;;;;;;8.52;4.65;;;;;;;18.08;62.55;95347.50;4913051;29;20024;-85
2023/09/09 02:29:50;;;;;;;8.35;4.82;;;;;;;18.05;62.48;95349.19;4898536;29;20028;-86
2023/09/09 02:32:16;;;;;;;7.80;4.53;;;;;;;17.99;62.75;95356.66;4897387;29;20042;-85
2023/09/09 02:34:42;;;;;;;8.80;4.47;;;;;;;17.93;63.16;95358.56;4929673;29;20031;-85
2023/09/09 02:37:19;;;;;;;10.13;4.60;;;;;;;17.91;63.06;95347.16;4913115;29;20085;-86
2023/09/09 02:39:49;;;;;;;7.03;4.82;;;;;;;17.89;62.85;95361.53;4914563;29;20031;-85
2023/09/09 02:42:17;;;;;;;8.13;4.70;;;;;;;17.94;62.64;95368.44;4911201;29;20042;-85
2023/09/09 02:44:43;;;;;;;10.90;5.40;;;;;;;17.86;62.77;95359.69;4928682;29;20694;-84
2023/09/09 02:47:09;;;;;;;7.35;4.88;;;;;;;17.87;62.82;95366.03;4914245;29;20044;-86
2023/09/09 02:49:38;;;;;;;7.57;5.00;;;;;;;17.82;62.95;95359.09;4928640;29;20037;-84
2023/09/09 02:52:04;;;;;;;8.38;5.32;;;;;;;17.82;63.06;95358.34;4929200;29;20043;-85
2023/09/09 02:54:30;;;;;;;7.13;4.63;;;;;;;17.76;62.95;95353.44;4913221;29;20024;-85
2023/09/09 02:56:55;;;;;;;6.35;5.05;;;;;;;17.74;63.07;95361.47;4944725;29;20035;-84
2023/09/09 02:59:22;;;;;;;8.57;5.00;;;;;;;17.66;63.00;95343.59;4913121;29;20028;-85
2023/09/09 03:01:48;;;;;;;6.85;4.97;;;;;;;17.63;62.92;95352.88;4942752;29;20036;-85
2023/09/09 03:04:13;;;;;;;7.85;5.13;;;;;;;17.58;62.92;95347.19;4929578;29;20103;-86
2023/09/09 03:06:38;;;;;;;7.90;4.97;;;;;;;17.63;62.87;95338.97;4944146;29;20384;-85
2023/09/09 03:09:05;;;;;;;8.63;5.03;;;;;;;17.63;62.86;95338.22;4945101;29;20114;-85
2023/09/09 03:11:31;;;;;;;6.53;4.90;;;;;;;17.54;62.92;95350.13;4912571;29;20135;-85
2023/09/09 03:13:57;;;;;;;7.35;5.30;;;;;;;17.48;62.83;95338.91;4944419;29;20503;-85
2023/09/09 03:16:22;;;;;;;10.00;5.40;;;;;;;17.51;63.05;95351.88;4928929;29;20028;-85
2023/09/09 03:18:48;;;;;;;11.73;5.28;;;;;;;17.49;63.00;95361.91;4944544;29;20082;-85
2023/09/09 03:21:13;;;;;;;7.15;6.03;;;;;;;17.43;62.64;95356.25;4928823;29;20107;-84
2023/09/09 03:23:39;;;;;;;9.02;5.30;;;;;;;17.40;62.65;95359.19;4927959;29;20043;-85
2023/09/09 03:26:05;;;;;;;11.50;5.63;;;;;;;17.36;62.59;95366.91;4944108;29;20028;-85
2023/09/09 03:28:30;;;;;;;12.10;6.07;;;;;;;17.24;62.28;95347.22;4927960;29;20078;-85
2023/09/09 03:30:59;;;;;;;10.25;5.93;;;;;;;17.22;61.72;95348.94;4944448;29;20422;-85
2023/09/09 03:33:27;;;;;;;8.63;5.78;;;;;;;17.23;62.18;95354.03;4912409;29;20175;-85
2023/09/09 03:35:52;;;;;;;6.60;5.25;;;;;;;17.20;62.26;95359.75;4943636;29;20051;-85
2023/09/09 03:38:18;;;;;;;7.03;5.88;;;;;;;17.14;62.16;95364.41;4927613;29;20036;-85
2023/09/09 03:40:43;;;;;;;11.35;6.18;;;;;;;17.12;62.33;95370.44;4943688;29;20035;-85
2023/09/09 03:43:09;;;;;;;6.72;5.63;;;;;;;17.05;62.53;95353.34;4927645;29;20447;-83
2023/09/09 03:45:34;;;;;;;9.68;5.57;;;;;;;17.08;62.42;95363.50;4927701;29;20034;-83
2023/09/09 03:48:00;;;;;;;10.27;6.00;;;;;;;17.03;62.45;95359.34;4912765;29;20801;-84
2023/09/09 03:50:25;;;;;;;7.22;5.60;;;;;;;16.92;62.40;95351.53;4943900;29;20092;-84
2023/09/09 03:52:50;;;;;;;8.80;5.93;;;;;;;16.95;62.54;95352.59;4943608;29;20075;-84
2023/09/09 03:55:17;;;;;;;10.05;6.10;;;;;;;16.92;62.68;95353.56;4943537;29;20122;-85
2023/09/09 03:57:43;;;;;;;13.88;6.25;;;;;;;16.94;62.42;95371.28;4943727;29;20027;-85
2023/09/09 04:00:09;;;;;;;13.75;6.85;;;;;;;16.79;62.95;95348.19;4912627;29;20034;-84
2023/09/09 04:02:35;;;;;;;11.90;6.38;;;;;;;16.88;62.71;95372.38;4927671;29;20032;-84
2023/09/09 04:05:00;;;;;;;8.20;5.80;;;;;;;16.81;63.01;95367.94;4944008;28;20479;-83
2023/09/09 04:07:26;;;;;;;8.20;6.30;;;;;;;16.77;63.22;95361.75;4911847;29;20380;-86
2023/09/09 04:09:53;;;;;;;11.93;6.57;;;;;;;16.72;63.14;95360.38;4944346;29;20046;-85
2023/09/09 04:12:19;;;;;;;9.40;6.60;;;;;;;16.74;62.90;95362.69;4943461;29;20028;-84
2023/09/09 04:14:44;;;;;;;12.68;6.65;;;;;;;16.68;62.67;95356.97;4927812;29;20039;-83
2023/09/09 04:17:09;;;;;;;14.75;7.38;;;;;;;16.63;62.75;95354.03;4927666;29;20102;-84
2023/09/09 04:19:35;;;;;;;9.40;7.28;;;;;;;16.72;62.60;95370.72;4942954;29;20031;-84
2023/09/09 04:22:00;;;;;;;10.68;7.40;;;;;;;16.67;62.39;95363.00;4928022;29;20035;-83
2023/09/09 04:24:26;;;;;;;12.13;7.40;;;;;;;16.62;62.87;95356.06;4927443;29;20032;-85
2023/09/09 04:26:53;;;;;;;13.15;7.07;;;;;;;16.65;62.77;95368.25;4927952;29;20082;-83
2023/09/09 04:29:18;;;;;;;8.02;6.57;;;;;;;16.55;62.76;95352.84;4926283;29;20436;-84
2023/09/09 04:31:46;;;;;;;10.25;6.57;;;;;;;16.58;62.75;95358.25;4927843;29;20030;-85
2023/09/09 04:34:12;;;;;;;10.38;6.63;;;;;;;16.60;62.71;95361.31;4912015;29;20114;-85
2023/09/09 04:36:37;;;;;;;12.18;7.55;;;;;;;16.58;62.93;95358.25;4926414;29;20135;-85
2023/09/09 04:39:04;;;;;;;11.05;7.07;;;;;;;16.57;62.79;95364.25;4929692;29;20111;-85
2023/09/09 04:41:29;;;;;;;10.38;6.93;;;;;;;16.61;63.04;95371.16;4911634;29;20618;-84
2023/09/09 04:43:54;;;;;;;9.43;6.80;;;;;;;16.55;63.22;95364.72;4944136;29;20028;-83
2023/09/09 04:46:20;;;;;;;12.52;6.57;;;;;;;16.54;63.26;95359.63;4928498;29;20039;-85
2023/09/09 04:48:46;;;;;;;14.68;7.10;;;;;;;16.38;63.10;95330.97;4944102;29;20056;-85
2023/09/09 04:51:11;;;;;;;11.70;7.05;;;;;;;16.61;63.11;95359.31;4946208;28;20019;-85
2023/09/09 04:53:37;;;;;;;13.40;6.95;;;;;;;16.58;62.99;95355.47;4931776;29;20459;-84
2023/09/09 04:56:03;;;;;;;10.88;7.22;;;;;;;16.58;62.94;95358.25;4915343;29;20427;-85
2023/09/09 04:58:29;;;;;;;16.13;7.63;;;;;;;16.61;62.78;95364.84;4946794;29;20032;-85
2023/09/09 05:00:55;;;;;;;14.48;7.88;;;;;;;16.61;62.93;95359.31;4931454;29;20179;-85
2023/09/09 05:03:20;;;;;;;11.43;8.15;;;;;;;16.55;62.80;95350.06;4930652;29;20550;-85
2023/09/09 05:05:45;;;;;;;16.75;8.25;;;;;;;16.63;63.07;95365.94;4947934;29;20069;-84
2023/09/09 05:08:11;;;;;;;14.38;8.23;;;;;;;16.66;63.07;95367.78;4930634;29;20035;-83
2023/09/09 05:10:37;;;;;;;12.13;8.27;;;;;;;16.66;62.89;95367.00;4947513;29;20031;-85
2023/09/09 05:13:03;;;;;;;11.82;7.97;;;;;;;16.73;63.03;95363.94;4946985;29;20054;-84
2023/09/09 05:15:29;;;;;;;12.57;7.88;;;;;;;16.72;63.13;95357.59;4930794;29;20388;-85
2023/09/09 05:17:54;;;;;;;12.10;7.47;;;;;;;16.77;63.10;95366.53;4915276;29;20039;-84
2023/09/09 05:20:20;;;;;;;12.80;7.43;;;;;;;16.77;63.08;95356.22;4931288;29;20039;-85
2023/09/09 05:22:45;;;;;;;11.27;7.45;;;;;;;16.79;63.14;95364.81;4947498;29;20496;-85
2023/09/09 05:25:10;;;;;;;12.40;7.60;;;;;;;16.82;63.02;95357.59;4913364;29;20127;-86
2023/09/09 05:27:36;;;;;;;12.02;7.03;;;;;;;16.89;63.09;95365.59;4931513;29;20479;-85
2023/09/09 05:30:01;;;;;;;11.65;7.25;;;;;;;16.89;63.09;95354.47;4929845;29;20502;-85
2023/09/09 05:32:27;;;;;;;13.60;7.00;;;;;;;16.97;63.02;95364.78;4946058;29;20059;-85
2023/09/09 05:34:52;;;;;;;7.30;5.90;;;;;;;16.95;63.00;95352.59;4946597;29;20118;-84
2023/09/09 05:37:17;;;;;;;11.38;6.88;;;;;;;17.09;63.49;95360.28;4946008;29;20131;-84
2023/09/09 05:39:43;;;;;;;15.77;6.75;;;;;;;17.11;63.37;95362.56;4931001;29;20115;-85
2023/09/09 05:42:08;;;;;;;8.20;6.38;;;;;;;17.11;63.32;95360.56;4945748;29;20099;-86
2023/09/09 05:44:36;;;;;;;9.98;6.75;;;;;;;17.27;63.88;95378.88;4930827;29;20072;-83
2023/09/09 05:47:01;;;;;;;9.73;5.78;;;;;;;17.30;63.53;95374.38;4930152;29;20027;-84
2023/09/09 05:49:27;;;;;;;9.45;6.82;;;;;;;17.32;63.47;95369.09;4946915;29;20035;-85
2023/09/09 05:51:52;;;;;;;8.05;6.80;;;;;;;17.41;63.59;95377.41;4929863;29;20415;-86
2023/09/09 05:54:17;;;;;;;9.18;5.63;;;;;;;17.43;63.59;95372.13;4946243;29;20118;-83
2023/09/09 05:56:43;;;;;;;9.43;6.05;;;;;;;17.47;63.41;95369.94;4946434;29;20032;-85
2023/09/09 05:59:08;;;;;;;10.77;6.00;;;;;;;17.53;63.03;95371.59;4929601;29;20091;-85
2023/09/09 06:01:34;;;;;;;12.70;6.43;;;;;;;17.60;62.95;95364.94;4930155;29;20067;-84
2023/09/09 06:03:59;;;;;;;11.07;6.35;;;;;;;17.60;62.92;95372.50;4913493;29;20028;-85
2023/09/09 06:06:25;;;;;;;13.85;6.38;;;;;;;17.71;63.24;95376.28;4946228;29;20184;-84
2023/09/09 06:08:50;;;;;;;11.57;6.25;;;;;;;17.73;62.99;95364.75;4944766;29;20032;-86
2023/09/09 06:11:15;;;;;;;9.77;6.45;;;;;;;17.81;62.90;95379.81;4930159;29;20024;-84
2023/09/09 06:13:41;;;;;;;11.57;7.85;;;;;;;17.81;62.48;95373.50;4929829;29;20508;-85
2023/09/09 06:16:07;;;;;;;11.93;7.10;;;;;;;17.83;62.58;95362.66;4929744;29;20036;-83
2023/09/09 06:18:33;;;;;;;9.10;6.70;;;;;;;17.87;62.67;95368.81;4930079;29;20027;-84
2023/09/09 06:20:59;;;;;;;9.40;6.60;;;;;;;17.89;62.52;95360.75;4928995;29;20034;-84
2023/09/09 06:23:24;;;;;;;10.38;6.85;;;;;;;17.93;62.28;95373.25;4930041;29;20032;-84
2023/09/09 06:25:50;;;;;;;10.60;6.38;;;;;;;18.02;62.19;95377.97;4945081;29;20087;-84
2023/09/09 06:28:15;;;;;;;8.85;6.28;;;;;;;18.13;62.30;95381.00;4929642;29;20043;-85
2023/09/09 06:30:44;;;;;;;7.72;6.20;;;;;;;18.17;61.99;95366.88;4929252;29;20518;-85
2023/09/09 06:33:10;;;;;;;9.70;6.25;;;;;;;18.25;61.54;95371.59;4929955;29;20028;-86
2023/09/09 06:35:35;;;;;;;11.30;6.18;;;;;;;18.31;61.43;95374.50;4913004;29;20482;-84
2023/09/09 06:38:00;;;;;;;14.27;7.18;;;;;;;18.32;61.61;95362.13;4910772;29;20059;-82
2023/09/09 06:40:27;;;;;;;9.65;6.50;;;;;;;18.40;61.31;95373.63;4929498;29;20055;-84
2023/09/09 06:42:52;;;;;;;14.23;7.47;;;;;;;18.42;61.22;95371.16;4944751;29;20035;-84
2023/09/09 06:45:18;;;;;;;12.18;6.88;;;;;;;18.56;60.35;95367.59;4930700;29;20035;-83
2023/09/09 06:47:46;;;;;;;10.23;7.03;;;;;;;18.53;60.51;95366.56;4928868;29;20035;-84
2023/09/09 06:50:12;;;;;;;12.82;7.07;;;;;;;18.58;60.77;95371.47;4929308;29;20495;-83
2023/09/09 06:52:38;;;;;;;12.15;6.57;;;;;;;18.70;60.39;95366.13;4944676;29;20040;-85
2023/09/09 06:55:07;;;;;;;10.25;6.93;;;;;;;18.77;60.67;95379.66;4945000;29;20031;-84
2023/09/09 06:57:32;;;;;;;9.20;6.90;;;;;;;18.81;60.67;95378.22;4945132;29;20110;-84
2023/09/09 06:59:58;;;;;;;11.25;7.10;;;;;;;18.89;60.15;95369.47;4928543;29;20114;-84
2023/09/09 07:02:23;;;;;;;10.52;6.88;;;;;;;18.99;59.90;95373.69;4945500;29;20047;-84
2023/09/09 07:04:49;;;;;;;8.85;6.55;;;;;;;19.06;59.55;95376.84;4928082;29;20032;-85
2023/09/09 07:07:14;;;;;;;9.93;7.22;;;;;;;19.12;59.41;95373.41;4930388;29;20435;-85
2023/09/09 07:09:39;;;;;;;10.60;7.55;;;;;;;19.24;58.66;95370.28;4943839;29;20039;-85
2023/09/09 07:12:05;;;;;;;12.02;7.47;;;;;;;19.30;58.46;95376.72;4928745;29;20032;-83
2023/09/09 07:14:31;;;;;;;9.85;6.78;;;;;;;19.37;58.41;95375.53;4929819;29;20031;-83
2023/09/09 07:16:56;;;;;;;10.93;6.75;;;;;;;19.48;58.10;95378.50;4944505;29;20455;-84
2023/09/09 07:19:21;;;;;;;13.73;7.40;;;;;;;19.53;57.68;95372.25;4944922;29;20028;-85
2023/09/09 07:21:47;;;;;;;12.23;7.35;;;;;;;19.61;57.47;95369.81;4927673;29;20046;-83
2023/09/09 07:24:12;;;;;;;10.43;6.28;;;;;;;19.67;57.78;95367.13;4944964;29;20463;-85
2023/09/09 07:26:38;;;;;;;10.68;6.05;;;;;;;19.81;58.18;95380.25;4927714;29;20562;-86
2023/09/09 07:29:04;;;;;;;8.43;6.00;;;;;;;19.88;57.14;95368.69;4912765;29;20027;-84
2023/09/09 07:31:30;;;;;;;9.35;6.53;;;;;;;20.04;56.67;95379.28;4913073;29;20038;-85
2023/09/09 07:33:55;;;;;;;11.43;5.80;;;;;;;20.17;54.50;95364.97;4930407;29;20024;-82
2023/09/09 07:36:21;;;;;;;6.07;5.13;;;;;;;20.32;54.11;95373.28;4913008;29;20078;-86
2023/09/09 07:38:46;;;;;;;8.63;5.13;;;;;;;20.47;52.89;95384.34;4912289;29;20035;-84
2023/09/09 07:41:11;;;;;;;7.80;5.18;;;;;;;20.58;51.52;95379.66;4916091;29;20028;-85
2023/09/09 07:43:37;;;;;;;7.13;5.05;;;;;;;20.67;50.47;95378.75;4912133;29;20498;-84
2023/09/09 07:46:02;;;;;;;8.68;4.80;;;;;;;20.83;48.95;95375.34;4929150;29;20126;-84
2023/09/09 07:48:28;;;;;;;9.65;4.70;;;;;;;20.97;48.24;95370.88;4912354;29;20035;-85
2023/09/09 07:50:54;;;;;;;6.13;4.47;;;;;;;21.08;48.52;95368.19;4912803;29;20024;-84
2023/09/09 07:53:20;;;;;;;5.95;4.20;;;;;;;21.30;46.14;95375.25;4927927;29;20434;-85
2023/09/09 07:56:01;;;;;;;7.05;3.33;;;;;;;21.48;43.16;95372.84;4911903;29;20114;-86
2023/09/09 07:58:27;;;;;;;4.32;3.15;;;;;;;21.63;42.22;95366.31;4913112;29;20086;-84
2023/09/09 08:01:04;;;;;;;4.20;3.00;;;;;;;21.81;41.16;95370.75;4927761;29;20111;-85
2023/09/09 08:03:30;;;;;;;5.05;3.00;;;;;;;22.03;41.14;95375.69;4928027;29;20031;-84
2023/09/09 08:06:02;;;;;;;6.47;3.13;;;;;;;22.20;40.21;95368.16;4896051;29;20427;-84
2023/09/09 08:08:31;;;;;;;5.28;2.88;;;;;;;22.38;39.37;95366.94;4928277;29;20114;-85
2023/09/09 08:10:56;;;;;;;8.45;3.05;;;;;;;22.45;39.87;95363.66;4912445;29;20024;-85
2023/09/09 08:13:22;;;;;;;6.72;3.60;;;;;;;22.60;39.51;95357.84;4911693;29;20028;-84
2023/09/09 08:15:48;;;;;;;8.20;3.40;;;;;;;22.69;39.98;95357.59;4896464;29;20028;-84
2023/09/09 08:18:14;;;;;;;5.18;3.10;;;;;;;22.92;39.18;95361.97;4911619;29;20066;-85
2023/09/09 08:20:39;;;;;;;10.57;3.53;;;;;;;23.03;39.33;95353.56;4912246;29;20036;-86
2023/09/09 08:23:05;;;;;;;6.75;2.85;;;;;;;23.24;39.01;95361.75;4911472;29;20056;-85
2023/09/09 08:25:33;;;;;;;4.00;2.50;;;;;;;23.38;37.84;95351.50;4895648;29;20045;-85
2023/09/09 08:28:01;;;;;;;9.90;2.92;;;;;;;23.63;35.93;95344.09;4927992;29;20046;-85
2023/09/09 08:30:27;;;;;;;2.83;2.00;;;;;;;23.78;34.85;95348.16;4928969;29;20028;-85
2023/09/09 08:32:53;;;;;;;6.53;2.35;;;;;;;23.81;33.74;95338.72;4928426;29;20102;-85
2023/09/09 08:35:18;;;;;;;4.10;2.28;;;;;;;23.99;34.53;95339.41;4911072;29;20574;-85
2023/09/09 08:37:43;;;;;;;5.78;2.28;;;;;;;24.27;34.00;95337.25;4929290;29;20509;-86
2023/09/09 08:40:09;;;;;;;5.07;2.58;;;;;;;24.50;33.50;95335.13;4926754;29;20039;-85
2023/09/09 08:42:40;;;;;;;4.28;2.50;;;;;;;24.72;33.29;95327.84;4929270;29;20103;-85
2023/09/09 08:45:41;;;;;;;4.07;2.55;;;;;;;25.05;31.94;95341.66;4928421;29;20036;-85
2023/09/09 08:48:07;;;;;;;9.27;2.50;;;;;;;25.24;32.00;95324.13;4928195;29;20027;-85
2023/09/09 08:50:38;;;;;;;5.78;3.10;;;;;;;25.51;29.14;95322.34;4896585;29;20028;-85
2023/09/09 08:53:04;;;;;;;5.22;2.30;;;;;;;25.75;29.07;95335.69;4927139;29;20247;-85
2023/09/09 08:55:29;;;;;;;3.45;1.80;;;;;;;26.04;26.61;95329.22;4927621;29;20036;-85
2023/09/09 08:57:55;;;;;;;4.82;3.00;;;;;;;26.22;27.00;95330.53;4910869;29;20098;-86
2023/09/09 09:00:21;;;;;;;4.20;2.05;;;;;;;26.45;25.98;95322.59;4895715;29;20494;-85
2023/09/09 09:02:48;;;;;;;5.05;2.00;;;;;;;26.68;26.38;95323.78;4894984;29;20475;-85
2023/09/09 09:05:16;;;;;;;6.40;1.63;;;;;;;26.91;26.02;95332.66;4910663;29;20512;-84
2023/09/09 09:07:41;;;;;;;5.00;1.98;;;;;;;27.11;25.43;95320.06;4911742;29;20131;-85
2023/09/09 09:10:07;;;;;;;8.65;1.80;;;;;;;27.31;24.63;95324.38;4926442;29;20107;-85
2023/09/09 09:12:35;;;;;;;6.35;2.65;;;;;;;27.53;23.68;95312.69;4912234;29;20274;-85
2023/09/09 09:15:00;;;;;;;3.35;2.25;;;;;;;27.71;24.39;95311.09;4910779;29;20035;-85
2023/09/09 09:17:25;;;;;;;7.07;4.00;;;;;;;27.91;24.49;95312.50;4927531;29;20050;-85
2023/09/09 09:19:51;;;;;;;4.63;2.00;;;;;;;28.22;24.58;95322.16;4926823;29;20050;-86
2023/09/09 09:22:17;;;;;;;3.65;2.00;;;;;;;28.50;23.49;95315.94;4911435;29;20020;-85
2023/09/09 09:24:44;;;;;;;3.40;1.92;;;;;;;28.69;23.25;95315.03;4895990;29;20342;-85
2023/09/09 09:27:13;;;;;;;2.72;1.83;;;;;;;28.86;23.20;95306.91;4910692;29;20431;-85
2023/09/09 09:29:40;;;;;;;7.18;2.08;;;;;;;29.15;22.92;95313.44;4911490;29;20032;-85
2023/09/09 09:32:05;;;;;;;3.80;2.15;;;;;;;29.37;22.99;95303.63;4913312;29;20352;-85
2023/09/09 09:34:35;;;;;;;2.88;2.35;;;;;;;29.58;22.39;95312.88;4913350;29;20103;-84
2023/09/09 09:37:19;;;;;;;4.95;2.55;;;;;;;29.82;22.68;95308.91;4911972;29;20047;-85
2023/09/09 09:39:44;;;;;;;3.70;1.90;;;;;;;30.08;21.77;95315.66;4914363;29;20075;-85
2023/09/09 09:42:11;;;;;;;5.40;2.40;;;;;;;30.33;21.90;95308.25;4915405;29;20110;-84
2023/09/09 09:44:37;;;;;;;4.55;2.00;;;;;;;30.61;21.55;95304.59;4914181;29;20031;-85
2023/09/09 09:47:07;;;;;;;3.63;2.30;;;;;;;30.89;21.39;95306.59;4915409;29;20414;-85
2023/09/09 09:49:39;;;;;;;4.00;2.50;;;;;;;31.18;21.27;95301.53;4898377;29;20042;-86
2023/09/09 09:52:05;;;;;;;;;;;;;;;31.42;20.71;95300.22;4916208;29;20028;-87
2023/09/09 09:54:32;;;;;;;4.47;2.55;;;;;;;31.48;20.79;95288.69;4930084;29;20315;-85
2023/09/09 09:57:02;;;;;;;4.22;2.38;;;;;;;31.60;20.09;95267.09;4914485;29;20039;-86
2023/09/09 09:59:30;;;;;;;5.80;2.40;;;;;;;31.96;19.86;95288.84;4915082;29;20507;-86
2023/09/09 10:01:55;;;;;;;4.32;2.08;;;;;;;32.01;19.48;95285.06;4897851;29;20024;-86
2023/09/09 10:04:21;;;;;;;4.47;2.05;;;;;;;32.01;19.06;95287.91;4914867;29;20043;-86
2023/09/09 10:06:48;;;;;;;4.30;1.90;;;;;;;32.20;19.03;95290.31;4913812;29;20028;-86
2023/09/09 10:09:23;;;;;;;2.72;1.65;;;;;;;32.49;18.57;95285.84;4898800;29;20154;-85
2023/09/09 10:12:05;;;;;;;3.28;1.90;;;;;;;32.79;18.32;95289.88;4930044;29;20039;-85
2023/09/09 10:14:31;;;;;;;3.53;2.07;;;;;;;33.03;17.79;95285.56;4913992;29;20063;-85
2023/09/09 10:16:57;;;;;;;2.40;1.40;;;;;;;33.22;17.38;95276.53;4914406;29;20059;-85
2023/09/09 10:19:23;;;;;;;2.45;1.65;;;;;;;33.35;16.98;95278.34;4913787;29;20046;-86
2023/09/09 10:21:50;;;;;;;2.90;1.70;;;;;;;33.56;17.38;95273.06;4930832;29;20024;-86
2023/09/09 10:24:17;;;;;;;2.83;2.00;;;;;;;34.15;16.91;95272.31;4913551;29;20035;-85
2023/09/09 10:26:43;;;;;;;3.10;2.05;;;;;;;34.77;16.47;95283.75;4931197;29;20088;-84
2023/09/09 10:29:09;;;;;;;3.03;1.88;;;;;;;35.40;15.61;95280.19;4905918;29;20027;-85
2023/09/09 10:31:36;;;;;;;5.78;2.05;;;;;;;35.94;15.29;95282.91;4930872;29;20032;-84
2023/09/09 10:34:02;;;;;;;3.97;2.38;;;;;;;36.50;14.85;95271.38;4915237;29;20095;-85
2023/09/09 10:36:33;;;;;;;3.80;2.00;;;;;;;37.17;13.73;95266.88;4913665;29;20051;-86
2023/09/09 10:38:59;;;;;;;5.07;1.58;;;;;;;37.73;13.49;95266.47;4914152;29;20024;-86
2023/09/09 10:41:24;;;;;;;2.85;1.75;;;;;;;38.41;12.92;95266.78;4930617;29;20091;-85
2023/09/09 10:43:50;;;;;;;2.60;1.85;;;;;;;39.12;12.22;95267.78;4929694;29;20056;-85
2023/09/09 10:46:15;;;;;;;2.55;1.40;;;;;;;39.61;11.94;95262.22;4913189;29;20091;-86
2023/09/09 10:48:44;;;;;;;3.72;1.83;;;;;;;40.31;11.34;95262.09;4913312;29;20024;-86
2023/09/09 10:51:13;;;;;;;4.43;1.38;;;;;;;40.78;11.38;95264.09;4913554;29;20150;-86
2023/09/09 10:53:38;;;;;;;2.72;1.65;;;;;;;41.46;10.75;95248.38;4912885;29;20032;-85
2023/09/09 10:56:16;;;;;;;2.72;1.48;;;;;;;41.99;10.02;95260.59;4913883;29;20039;-85
2023/09/09 10:58:42;;;;;;;8.70;1.60;;;;;;;42.44;10.13;95257.09;4912876;29;20039;-87
2023/09/09 11:01:09;;;;;;;2.35;1.35;;;;;;;42.72;9.43;95240.44;4930324;29;20051;-86
2023/09/09 11:03:42;;;;;;;3.30;1.27;;;;;;;42.62;8.91;95246.50;4928887;29;20517;-86
2023/09/09 11:06:12;;;;;;;2.95;1.30;;;;;;;42.89;8.88;95242.72;4928801;29;20092;-87
2023/09/09 11:08:46;;;;;;;2.50;1.05;;;;;;;43.19;8.75;95255.03;4913591;29;20087;-86
2023/09/09 11:11:15;;;;;;;2.35;1.30;;;;;;;43.17;8.89;95248.38;4928087;29;20030;-86
2023/09/09 11:13:59;;;;;;;1.83;1.20;;;;;;;43.29;8.75;95246.03;4929424;29;20115;-87
2023/09/09 11:16:26;;;;;;;2.28;1.33;;;;;;;43.34;8.81;95244.09;4929728;29;20494;-86
2023/09/09 11:18:52;;;;;;;2.17;1.40;;;;;;;43.62;8.57;95242.53;4913212;29;20028;-88
2023/09/09 11:21:23;;;;;;;3.35;1.20;;;;;;;43.60;8.45;95239.53;4929856;29;20028;-86
2023/09/09 11:23:52;;;;;;;3.10;1.40;;;;;;;42.54;8.76;95236.63;4900587;29;20047;-85
2023/09/09 11:26:17;;;;;;;4.03;1.58;;;;;;;41.02;10.13;95236.66;4915118;29;20031;-86
2023/09/09 11:28:47;;;;;;;2.45;1.50;;;;;;;40.18;10.62;95233.25;4928552;29;20102;-85